| time (UTC) | temp F | wind direction | speed MPH | gust MPH | rain 1hr in | rain 24hr in | rain mn in | humidity % | barometer mb |
| 20260507124528 | 53 | 34 | 5.0 | 12.0 | 0.00 | 0.07 | 0.06 | 75 | 1012.3 |
| 20260507123014 | 53 | 342 | 6.0 | 13.0 | 0.00 | 0.07 | 0.06 | 76 | 1012.4 |
| 20260507121517 | 53 | 9 | 9.0 | 13.0 | 0.00 | 0.07 | 0.06 | 75 | 1012.2 |
| 20260507120005 | 53 | 352 | 8.0 | 15.0 | 0.00 | 0.07 | 0.06 | 77 | 1012.3 |
| 20260507114505 | 53 | 337 | 4.0 | 10.0 | 0.00 | 0.07 | 0.06 | 79 | 1011.9 |
| 20260507113012 | 53 | 336 | 6.0 | 13.0 | 0.00 | 0.07 | 0.06 | 80 | 1011.9 |
| 20260507111514 | 53 | 318 | 5.0 | 12.0 | 0.00 | 0.07 | 0.06 | 81 | 1012.1 |
| 20260507110018 | 52 | 322 | 5.0 | 12.0 | 0.00 | 0.07 | 0.06 | 82 | 1012.0 |
| 20260507104506 | 52 | 25 | 6.0 | 15.0 | 0.00 | 0.07 | 0.06 | 83 | 1011.7 |
| 20260507103007 | 52 | 11 | 7.0 | 15.0 | 0.00 | 0.07 | 0.06 | 84 | 1011.5 |
| 20260507101512 | 52 | 349 | 3.0 | 15.0 | 0.00 | 0.07 | 0.06 | 85 | 1011.4 |
| 20260507100021 | 53 | 5 | 6.0 | 11.0 | 0.00 | 0.07 | 0.06 | 85 | 1010.9 |
| 20260507094523 | 53 | 314 | 5.0 | 13.0 | 0.00 | 0.07 | 0.06 | 85 | 1010.8 |
| 20260507093006 | 53 | 352 | 7.0 | 14.0 | 0.00 | 0.07 | 0.06 | 85 | 1010.4 |
| 20260507091513 | 53 | 328 | 8.0 | 17.0 | 0.00 | 0.07 | 0.06 | 85 | 1010.7 |
| 20260507090013 | 53 | 315 | 9.0 | 15.0 | 0.00 | 0.07 | 0.06 | 85 | 1010.5 |
| 20260507084520 | 53 | 319 | 9.0 | 16.0 | 0.00 | 0.07 | 0.06 | 84 | 1010.3 |
| 20260507083024 | 53 | 10 | 11.0 | 24.0 | 0.01 | 0.07 | 0.06 | 83 | 1010.2 |
| 20260507081508 | 55 | 352 | 11.0 | 20.0 | 0.01 | 0.07 | 0.06 | 88 | 1009.9 |
| 20260507080012 | 55 | 334 | 10.0 | 14.0 | 0.02 | 0.07 | 0.06 | 88 | 1009.5 |
| 20260507074514 | 55 | 350 | 11.0 | 18.0 | 0.06 | 0.07 | 0.06 | 88 | 1009.2 |
| 20260507073020 | 56 | 332 | 10.0 | 16.0 | 0.05 | 0.06 | 0.05 | 88 | 1009.3 |
| 20260507071525 | 56 | 313 | 9.0 | 19.0 | 0.05 | 0.06 | 0.05 | 88 | 1009.3 |
| 20260507070040 | 58 | 14 | 13.0 | 22.0 | 0.04 | 0.05 | 0.04 | 84 | 1008.9 |
| 20260507064514 | 61 | 329 | 6.0 | 10.0 | 0.00 | 0.01 | 0.00 | 91 | 1008.8 |
| 20260507063017 | 60 | 319 | 4.0 | 8.0 | 0.00 | 0.01 | 0.00 | 92 | 1008.7 |
| 20260507061523 | 59 | 245 | 1.0 | 3.0 | 0.00 | 0.01 | 0.00 | 90 | 1008.5 |
| 20260507060027 | 58 | 244 | 3.0 | 8.0 | 0.00 | 0.01 | 0.00 | 90 | 1008.9 |
| 20260507054526 | 58 | 215 | 2.0 | 8.0 | 0.00 | 0.01 | 0.00 | 90 | 1009.0 |
| 20260507053014 | 58 | 237 | 0.0 | 1.0 | 0.00 | 0.01 | 0.00 | 90 | 1008.5 |
| 20260507051503 | 58 | 237 | 0.0 | 4.0 | 0.00 | 0.01 | 0.00 | 91 | 1008.4 |
| 20260507050015 | 57 | 217 | 1.0 | 5.0 | 0.00 | 0.01 | 0.00 | 91 | 1009.1 |
| 20260507044507 | 57 | 219 | 2.0 | 8.0 | 0.00 | 0.01 | 0.00 | 90 | 1009.0 |
| 20260507043014 | 57 | 211 | 4.0 | 9.0 | 0.00 | 0.01 | 0.00 | 90 | 1009.0 |
| 20260507041518 | 57 | 231 | 6.0 | 11.0 | 0.00 | 0.01 | 0.00 | 90 | 1009.2 |
| 20260507040002 | 57 | 227 | 5.0 | 10.0 | 0.00 | 0.01 | 0.00 | 90 | 1009.2 |
| 20260507034505 | 56 | 200 | 5.0 | 10.0 | 0.00 | 0.01 | 0.01 | 91 | 1009.4 |
| 20260507033008 | 56 | 182 | 3.0 | 9.0 | 0.00 | 0.01 | 0.01 | 90 | 1009.3 |
| 20260507031513 | 57 | 192 | 3.0 | 8.0 | 0.00 | 0.01 | 0.01 | 90 | 1008.9 |
| 20260507030018 | 57 | 209 | 1.0 | 6.0 | 0.00 | 0.01 | 0.01 | 90 | 1009.2 |
| 20260507024508 | 57 | 207 | 4.0 | 7.0 | 0.00 | 0.01 | 0.01 | 90 | 1009.5 |
| 20260507023004 | 57 | 215 | 2.0 | 8.0 | 0.00 | 0.01 | 0.01 | 90 | 1009.8 |
| 20260507021510 | 57 | 217 | 2.0 | 8.0 | 0.00 | 0.01 | 0.01 | 90 | 1010.1 |
| 20260507020022 | 57 | 207 | 4.0 | 8.0 | 0.00 | 0.01 | 0.01 | 89 | 1010.1 |
| 20260507014521 | 58 | 213 | 2.0 | 7.0 | 0.00 | 0.01 | 0.01 | 89 | 1010.0 |
| 20260507013004 | 58 | 216 | 3.0 | 8.0 | 0.00 | 0.01 | 0.01 | 89 | 1010.0 |
| 20260507011523 | 58 | 220 | 4.0 | 12.0 | 0.00 | 0.01 | 0.01 | 89 | 1010.0 |
| 20260507010014 | 58 | 225 | 4.0 | 10.0 | 0.00 | 0.01 | 0.01 | 88 | 1010.0 |
| 20260507004516 | 59 | 210 | 6.0 | 13.0 | 0.00 | 0.01 | 0.01 | 87 | 1009.9 |
| 20260507003021 | 59 | 213 | 4.0 | 12.0 | 0.00 | 0.01 | 0.01 | 87 | 1009.5 |
| 20260507001528 | 60 | 207 | 6.0 | 11.0 | 0.00 | 0.01 | 0.01 | 86 | 1009.5 |
| 20260507000012 | 60 | 215 | 6.0 | 11.0 | 0.00 | 0.01 | 0.01 | 86 | 1009.5 |
| 20260506234512 | 61 | 216 | 5.0 | 12.0 | 0.00 | 0.01 | 0.01 | 85 | 1009.6 |
| 20260506233016 | 61 | 198 | 6.0 | 15.0 | 0.00 | 0.01 | 0.01 | 84 | 1009.4 |
| 20260506231521 | 61 | 215 | 8.0 | 14.0 | 0.00 | 0.01 | 0.01 | 84 | 1009.4 |
| 20260506230026 | 61 | 207 | 7.0 | 13.0 | 0.00 | 0.01 | 0.01 | 84 | 1009.6 |
| 20260506224508 | 61 | 229 | 8.0 | 17.0 | 0.00 | 0.01 | 0.01 | 83 | 1009.3 |
| 20260506223018 | 61 | 254 | 8.0 | 16.0 | 0.00 | 0.01 | 0.01 | 84 | 1009.2 |
| 20260506221518 | 61 | 202 | 8.0 | 15.0 | 0.00 | 0.01 | 0.01 | 85 | 1009.3 |
| 20260506220024 | 60 | 209 | 9.0 | 16.0 | 0.00 | 0.01 | 0.01 | 84 | 1009.3 |
| 20260506214526 | 60 | 194 | 7.0 | 15.0 | 0.00 | 0.01 | 0.01 | 84 | 1009.2 |
| 20260506213010 | 61 | 210 | 7.0 | 14.0 | 0.00 | 0.01 | 0.01 | 83 | 1009.0 |
| 20260506211521 | 61 | 165 | 7.0 | 14.0 | 0.00 | 0.01 | 0.01 | 81 | 1009.1 |
| 20260506210028 | 62 | 205 | 9.0 | 18.0 | 0.00 | 0.01 | 0.01 | 81 | 1008.9 |
| 20260506204523 | 61 | 199 | 6.0 | 13.0 | 0.00 | 0.01 | 0.01 | 83 | 1008.7 |
| 20260506203035 | 61 | 216 | 6.0 | 17.0 | 0.00 | 0.01 | 0.01 | 84 | 1008.9 |
| 20260506201514 | 60 | 148 | 7.0 | 17.0 | 0.00 | 0.01 | 0.01 | 85 | 1008.9 |
| 20260506200015 | 60 | 216 | 7.0 | 16.0 | 0.00 | 0.01 | 0.01 | 85 | 1009.1 |
| 20260506194521 | 60 | 186 | 8.0 | 17.0 | 0.00 | 0.01 | 0.01 | 86 | 1009.1 |
| 20260506193023 | 60 | 195 | 10.0 | 21.0 | 0.00 | 0.01 | 0.01 | 85 | 1009.6 |
| 20260506191528 | 60 | 207 | 11.0 | 22.0 | 0.00 | 0.01 | 0.01 | 86 | 1009.7 |
| 20260506190013 | 60 | 240 | 11.0 | 23.0 | 0.00 | 0.01 | 0.01 | 87 | 1009.7 |
| 20260506184522 | 59 | 224 | 10.0 | 19.0 | 0.01 | 0.01 | 0.01 | 89 | 1010.1 |
| 20260506183025 | 58 | 198 | 9.0 | 22.0 | 0.01 | 0.01 | 0.01 | 89 | 1010.2 |
| 20260506181504 | 58 | 207 | 8.0 | 15.0 | 0.01 | 0.01 | 0.01 | 89 | 1010.1 |
| 20260506180012 | 58 | 210 | 11.0 | 22.0 | 0.01 | 0.01 | 0.01 | 88 | 1010.6 |
| 20260506174504 | 58 | 238 | 9.0 | 18.0 | 0.00 | 0.00 | 0.00 | 87 | 1010.8 |
| 20260506173013 | 59 | 216 | 9.0 | 17.0 | 0.00 | 0.00 | 0.00 | 87 | 1010.9 |
| 20260506171511 | 59 | 188 | 7.0 | 16.0 | 0.00 | 0.00 | 0.00 | 86 | 1010.9 |
| 20260506170005 | 59 | 225 | 8.0 | 20.0 | 0.00 | 0.00 | 0.00 | 84 | 1011.2 |
| 20260506164508 | 59 | 219 | 9.0 | 19.0 | 0.00 | 0.00 | 0.00 | 84 | 1011.5 |
| 20260506163008 | 60 | 223 | 10.0 | 18.0 | 0.00 | 0.00 | 0.00 | 83 | 1011.8 |
| 20260506161506 | 60 | 202 | 10.0 | 19.0 | 0.00 | 0.00 | 0.00 | 82 | 1011.8 |
| 20260506160008 | 60 | 203 | 10.0 | 19.0 | 0.00 | 0.00 | 0.00 | 82 | 1012.0 |
| 20260506154507 | 60 | 214 | 9.0 | 19.0 | 0.00 | 0.00 | 0.00 | 81 | 1012.1 |
| 20260506153008 | 61 | 215 | 8.0 | 19.0 | 0.00 | 0.00 | 0.00 | 80 | 1012.3 |
| 20260506151509 | 62 | 219 | 9.0 | 18.0 | 0.00 | 0.00 | 0.00 | 79 | 1012.1 |
| 20260506150008 | 61 | 209 | 8.0 | 18.0 | 0.00 | 0.00 | 0.00 | 81 | 1012.3 |
| 20260506144508 | 61 | 192 | 9.0 | 18.0 | 0.00 | 0.00 | 0.00 | 81 | 1012.5 |
| 20260506143017 | 61 | 219 | 10.0 | 19.0 | 0.00 | 0.00 | 0.00 | 81 | 1012.4 |
| 20260506141512 | 61 | 207 | 12.0 | 19.0 | 0.00 | 0.00 | 0.00 | 81 | 1012.4 |
| 20260506140014 | 60 | 230 | 11.0 | 17.0 | 0.00 | 0.00 | 0.00 | 83 | 1012.4 |
| 20260506134513 | 59 | 202 | 9.0 | 18.0 | 0.00 | 0.00 | 0.00 | 84 | 1012.5 |
| 20260506133009 | 60 | 208 | 7.0 | 17.0 | 0.00 | 0.00 | 0.00 | 83 | 1012.7 |
| 20260506131516 | 60 | 240 | 10.0 | 19.0 | 0.00 | 0.00 | 0.00 | 83 | 1012.9 |
| 20260506130012 | 60 | 191 | 10.0 | 18.0 | 0.00 | 0.00 | 0.00 | 84 | 1012.9 |